Main page
METAR-TAF:

METAR-TAF

Airports :

Ras Al Khaimah International Airport

Ras al-Khaimah, United Arab Emirates

latitude: 25-37N, longitude: 055-56E, elevation: 31 m

Current weather observation

The report was made 7 minutes ago, at 19:00 UTC
Wind 4 kt from the South
Temperature 17°C
Humidity 59%
Pressure 1018 hPa
Visibility 10 km or more
no clouds below 1500 m and no cumulonimbus

METAR: OMRK 181900Z 19004KT CAVOK 17/09 Q1017 A3006

Time: 23:07 (19:07 UTC)

Forecast

The report was made 2 hours and 4 minutes ago, at 17:03 UTC
Forecast valid from 18 at 18 UTC to 20 at 00 UTC
Wind 5 kt from the South
Visibility 10 km or more
no clouds below 1500 m and no cumulonimbus
Becoming
from 19 at 05 UTC to 19 at 07 UTC
Wind 16 kt from the West
Probability 30%
from 19 at 08 UTC to 19 at 13 UTC
Visibility: 4000 m
Blowing dust

TAF: OMRK 181703Z 1818/2000 19005KT CAVOK BECMG 1905/1907 28016KT PROB30 1908/1913 4000 BLDU

Weather observations and forecasts of more than 4000 airports (METAR and TAF reports).

The available stations are represented by yellow and red dots on the map.

Hover mouse over dot to see the name of the station.

Then click to see weather observations and forecasts.

To change the map : click on the green buttons with a black cross to zoom in, on the green button with a dash to zoom out, or on the green arrows for adjacent maps.


METAR-TAF: